sensor_id;sensor_type;location;lat;lon;timestamp;P1;durP1;ratioP1;P2;durP2;ratioP2
28605;SDS011;46498;49.968;7.754;2023-02-01T00:04:52;25.00;;;10.93;;
28605;SDS011;46498;49.968;7.754;2023-02-01T00:09:53;22.00;;;11.00;;
28605;SDS011;46498;49.968;7.754;2023-02-01T00:14:53;17.23;;;10.85;;
28605;SDS011;46498;49.968;7.754;2023-02-01T00:19:54;18.65;;;10.68;;
28605;SDS011;46498;49.968;7.754;2023-02-01T00:24:55;21.27;;;11.73;;
28605;SDS011;46498;49.968;7.754;2023-02-01T00:29:56;18.95;;;11.82;;
28605;SDS011;46498;49.968;7.754;2023-02-01T00:34:56;18.45;;;11.38;;
28605;SDS011;46498;49.968;7.754;2023-02-01T00:39:57;25.20;;;13.20;;
28605;SDS011;46498;49.968;7.754;2023-02-01T00:44:59;20.48;;;12.45;;
28605;SDS011;46498;49.968;7.754;2023-02-01T00:50:00;21.20;;;11.45;;
28605;SDS011;46498;49.968;7.754;2023-02-01T00:55:01;18.17;;;10.63;;
28605;SDS011;46498;49.968;7.754;2023-02-01T01:00:02;19.40;;;10.20;;
28605;SDS011;46498;49.968;7.754;2023-02-01T01:05:03;16.40;;;9.85;;
28605;SDS011;46498;49.968;7.754;2023-02-01T01:10:05;19.37;;;9.48;;
28605;SDS011;46498;49.968;7.754;2023-02-01T01:15:06;14.93;;;8.68;;
28605;SDS011;46498;49.968;7.754;2023-02-01T01:20:08;13.93;;;8.07;;
28605;SDS011;46498;49.968;7.754;2023-02-01T01:25:10;14.80;;;7.15;;
28605;SDS011;46498;49.968;7.754;2023-02-01T01:30:11;12.52;;;6.43;;
28605;SDS011;46498;49.968;7.754;2023-02-01T01:35:12;15.07;;;7.37;;
28605;SDS011;46498;49.968;7.754;2023-02-01T01:40:13;14.15;;;8.10;;
28605;SDS011;46498;49.968;7.754;2023-02-01T01:45:23;18.65;;;8.93;;
28605;SDS011;46498;49.968;7.754;2023-02-01T01:50:31;13.13;;;8.43;;
28605;SDS011;46498;49.968;7.754;2023-02-01T01:55:37;17.08;;;8.90;;
28605;SDS011;46498;49.968;7.754;2023-02-01T02:00:41;17.05;;;7.78;;
28605;SDS011;46498;49.968;7.754;2023-02-01T02:05:43;14.55;;;7.30;;
28605;SDS011;46498;49.968;7.754;2023-02-01T02:10:48;11.88;;;5.68;;
28605;SDS011;46498;49.968;7.754;2023-02-01T02:23:32;10.00;;;4.87;;
28605;SDS011;46498;49.968;7.754;2023-02-01T02:29:00;8.30;;;4.53;;
28605;SDS011;46498;49.968;7.754;2023-02-01T02:46:16;13.30;;;5.65;;
28605;SDS011;46498;49.968;7.754;2023-02-01T02:51:56;11.38;;;5.37;;
28605;SDS011;46498;49.968;7.754;2023-02-01T02:57:30;10.70;;;5.12;;
28605;SDS011;46498;49.968;7.754;2023-02-01T03:02:53;10.93;;;5.15;;
28605;SDS011;46498;49.968;7.754;2023-02-01T03:08:15;11.98;;;5.28;;
28605;SDS011;46498;49.968;7.754;2023-02-01T03:19:14;15.93;;;5.55;;
28605;SDS011;46498;49.968;7.754;2023-02-01T03:24:23;15.00;;;5.50;;
28605;SDS011;46498;49.968;7.754;2023-02-01T03:29:37;16.83;;;5.95;;
28605;SDS011;46498;49.968;7.754;2023-02-01T03:34:42;16.37;;;5.72;;
28605;SDS011;46498;49.968;7.754;2023-02-01T03:39:56;20.00;;;6.03;;
28605;SDS011;46498;49.968;7.754;2023-02-01T03:45:19;19.52;;;5.05;;
28605;SDS011;46498;49.968;7.754;2023-02-01T03:50:26;13.38;;;5.57;;
28605;SDS011;46498;49.968;7.754;2023-02-01T04:00:31;17.17;;;4.68;;
28605;SDS011;46498;49.968;7.754;2023-02-01T04:05:32;18.98;;;4.85;;
28605;SDS011;46498;49.968;7.754;2023-02-01T04:10:39;11.88;;;4.53;;
28605;SDS011;46498;49.968;7.754;2023-02-01T04:15:41;17.00;;;4.78;;
28605;SDS011;46498;49.968;7.754;2023-02-01T04:20:42;19.58;;;5.45;;
28605;SDS011;46498;49.968;7.754;2023-02-01T04:25:43;26.30;;;5.05;;
28605;SDS011;46498;49.968;7.754;2023-02-01T04:30:45;20.80;;;4.40;;
28605;SDS011;46498;49.968;7.754;2023-02-01T04:35:47;20.12;;;4.45;;
28605;SDS011;46498;49.968;7.754;2023-02-01T04:40:48;17.73;;;4.80;;
28605;SDS011;46498;49.968;7.754;2023-02-01T04:45:49;23.10;;;5.90;;
28605;SDS011;46498;49.968;7.754;2023-02-01T04:50:50;18.08;;;5.03;;
28605;SDS011;46498;49.968;7.754;2023-02-01T04:55:51;21.00;;;5.47;;
28605;SDS011;46498;49.968;7.754;2023-02-01T05:00:52;22.27;;;5.22;;
28605;SDS011;46498;49.968;7.754;2023-02-01T05:05:53;25.37;;;7.40;;
28605;SDS011;46498;49.968;7.754;2023-02-01T05:10:54;16.35;;;4.78;;
28605;SDS011;46498;49.968;7.754;2023-02-01T05:15:55;19.15;;;4.82;;
28605;SDS011;46498;49.968;7.754;2023-02-01T05:20:56;20.10;;;4.43;;
28605;SDS011;46498;49.968;7.754;2023-02-01T05:26:00;23.20;;;5.28;;
28605;SDS011;46498;49.968;7.754;2023-02-01T05:31:01;19.52;;;5.00;;
28605;SDS011;46498;49.968;7.754;2023-02-01T05:36:10;19.75;;;4.72;;
28605;SDS011;46498;49.968;7.754;2023-02-01T05:41:11;20.98;;;5.00;;
28605;SDS011;46498;49.968;7.754;2023-02-01T05:46:12;14.02;;;3.87;;
28605;SDS011;46498;49.968;7.754;2023-02-01T05:51:13;18.23;;;3.58;;
28605;SDS011;46498;49.968;7.754;2023-02-01T05:56:15;8.07;;;2.50;;
28605;SDS011;46498;49.968;7.754;2023-02-01T06:01:15;9.75;;;3.33;;
28605;SDS011;46498;49.968;7.754;2023-02-01T06:06:16;15.95;;;3.33;;
28605;SDS011;46498;49.968;7.754;2023-02-01T06:11:19;14.15;;;3.45;;
28605;SDS011;46498;49.968;7.754;2023-02-01T06:16:32;15.20;;;4.22;;
28605;SDS011;46498;49.968;7.754;2023-02-01T06:21:34;14.15;;;4.15;;
28605;SDS011;46498;49.968;7.754;2023-02-01T06:26:36;23.38;;;4.70;;
28605;SDS011;46498;49.968;7.754;2023-02-01T06:31:37;33.70;;;5.53;;
28605;SDS011;46498;49.968;7.754;2023-02-01T06:36:38;23.45;;;5.32;;
28605;SDS011;46498;49.968;7.754;2023-02-01T06:41:40;24.70;;;6.22;;
28605;SDS011;46498;49.968;7.754;2023-02-01T06:46:41;36.70;;;9.60;;
28605;SDS011;46498;49.968;7.754;2023-02-01T06:51:42;31.92;;;6.75;;
28605;SDS011;46498;49.968;7.754;2023-02-01T06:56:43;31.75;;;7.87;;
28605;SDS011;46498;49.968;7.754;2023-02-01T07:01:44;21.33;;;6.40;;
28605;SDS011;46498;49.968;7.754;2023-02-01T07:06:45;34.97;;;7.72;;
28605;SDS011;46498;49.968;7.754;2023-02-01T07:11:46;42.88;;;7.82;;
28605;SDS011;46498;49.968;7.754;2023-02-01T07:16:47;31.58;;;6.10;;
28605;SDS011;46498;49.968;7.754;2023-02-01T07:21:48;34.30;;;6.97;;
28605;SDS011;46498;49.968;7.754;2023-02-01T07:26:49;37.40;;;6.78;;
28605;SDS011;46498;49.968;7.754;2023-02-01T07:31:51;30.90;;;6.83;;
28605;SDS011;46498;49.968;7.754;2023-02-01T07:36:52;41.67;;;9.60;;
28605;SDS011;46498;49.968;7.754;2023-02-01T07:41:53;29.77;;;7.15;;
28605;SDS011;46498;49.968;7.754;2023-02-01T07:46:54;34.25;;;7.00;;
28605;SDS011;46498;49.968;7.754;2023-02-01T07:51:54;35.53;;;7.10;;
28605;SDS011;46498;49.968;7.754;2023-02-01T07:56:55;20.52;;;4.20;;
28605;SDS011;46498;49.968;7.754;2023-02-01T08:01:57;29.80;;;6.10;;
28605;SDS011;46498;49.968;7.754;2023-02-01T08:06:58;28.87;;;5.37;;
28605;SDS011;46498;49.968;7.754;2023-02-01T08:11:59;27.65;;;4.10;;
28605;SDS011;46498;49.968;7.754;2023-02-01T08:17:01;15.48;;;3.15;;
28605;SDS011;46498;49.968;7.754;2023-02-01T08:22:02;19.08;;;3.67;;
28605;SDS011;46498;49.968;7.754;2023-02-01T08:27:07;17.30;;;3.22;;
28605;SDS011;46498;49.968;7.754;2023-02-01T08:32:07;20.30;;;3.25;;
28605;SDS011;46498;49.968;7.754;2023-02-01T08:37:09;22.17;;;3.53;;
28605;SDS011;46498;49.968;7.754;2023-02-01T08:42:10;24.90;;;3.83;;
28605;SDS011;46498;49.968;7.754;2023-02-01T08:47:30;28.83;;;3.87;;
28605;SDS011;46498;49.968;7.754;2023-02-01T08:52:31;25.92;;;4.60;;
28605;SDS011;46498;49.968;7.754;2023-02-01T08:57:33;18.60;;;2.87;;
28605;SDS011;46498;49.968;7.754;2023-02-01T09:02:34;20.00;;;3.00;;
28605;SDS011;46498;49.968;7.754;2023-02-01T09:07:35;27.52;;;3.37;;
28605;SDS011;46498;49.968;7.754;2023-02-01T09:12:36;17.60;;;3.08;;
28605;SDS011;46498;49.968;7.754;2023-02-01T09:17:38;23.85;;;3.85;;
28605;SDS011;46498;49.968;7.754;2023-02-01T09:22:40;19.37;;;3.17;;
28605;SDS011;46498;49.968;7.754;2023-02-01T09:27:41;18.05;;;3.22;;
28605;SDS011;46498;49.968;7.754;2023-02-01T09:32:41;21.42;;;3.40;;
28605;SDS011;46498;49.968;7.754;2023-02-01T09:37:42;22.23;;;2.50;;
28605;SDS011;46498;49.968;7.754;2023-02-01T09:42:57;22.87;;;4.40;;
28605;SDS011;46498;49.968;7.754;2023-02-01T09:48:15;20.10;;;2.85;;
28605;SDS011;46498;49.968;7.754;2023-02-01T09:53:26;18.08;;;3.67;;
28605;SDS011;46498;49.968;7.754;2023-02-01T09:58:32;12.25;;;2.55;;
28605;SDS011;46498;49.968;7.754;2023-02-01T10:03:37;15.63;;;2.70;;
28605;SDS011;46498;49.968;7.754;2023-02-01T10:14:10;29.37;;;3.33;;
28605;SDS011;46498;49.968;7.754;2023-02-01T10:26:45;24.12;;;3.28;;
28605;SDS011;46498;49.968;7.754;2023-02-01T10:32:00;22.52;;;2.67;;
28605;SDS011;46498;49.968;7.754;2023-02-01T10:43:56;20.37;;;2.85;;
28605;SDS011;46498;49.968;7.754;2023-02-01T10:49:00;18.73;;;3.28;;
28605;SDS011;46498;49.968;7.754;2023-02-01T10:54:10;21.00;;;3.30;;
28605;SDS011;46498;49.968;7.754;2023-02-01T10:59:17;20.73;;;3.62;;
28605;SDS011;46498;49.968;7.754;2023-02-01T11:04:20;17.00;;;3.55;;
28605;SDS011;46498;49.968;7.754;2023-02-01T11:09:24;23.70;;;3.08;;
28605;SDS011;46498;49.968;7.754;2023-02-01T11:14:33;21.10;;;3.10;;
28605;SDS011;46498;49.968;7.754;2023-02-01T11:19:47;31.27;;;4.28;;
28605;SDS011;46498;49.968;7.754;2023-02-01T11:25:00;27.58;;;3.72;;
28605;SDS011;46498;49.968;7.754;2023-02-01T11:30:13;21.05;;;3.15;;
28605;SDS011;46498;49.968;7.754;2023-02-01T11:35:18;20.60;;;3.10;;
28605;SDS011;46498;49.968;7.754;2023-02-01T11:40:23;20.90;;;3.40;;
28605;SDS011;46498;49.968;7.754;2023-02-01T11:45:29;20.25;;;3.22;;
28605;SDS011;46498;49.968;7.754;2023-02-01T11:50:38;19.48;;;3.37;;
28605;SDS011;46498;49.968;7.754;2023-02-01T12:03:33;19.40;;;2.87;;
28605;SDS011;46498;49.968;7.754;2023-02-01T12:09:28;16.15;;;2.67;;
28605;SDS011;46498;49.968;7.754;2023-02-01T12:31:40;19.62;;;3.55;;
28605;SDS011;46498;49.968;7.754;2023-02-01T12:47:36;19.95;;;2.85;;
28605;SDS011;46498;49.968;7.754;2023-02-01T12:52:44;21.10;;;3.40;;
28605;SDS011;46498;49.968;7.754;2023-02-01T13:09:59;18.85;;;3.12;;
28605;SDS011;46498;49.968;7.754;2023-02-01T13:15:57;19.02;;;2.95;;
28605;SDS011;46498;49.968;7.754;2023-02-01T13:21:17;20.62;;;3.60;;
28605;SDS011;46498;49.968;7.754;2023-02-01T13:26:22;18.40;;;2.50;;
28605;SDS011;46498;49.968;7.754;2023-02-01T13:31:33;18.65;;;2.53;;
28605;SDS011;46498;49.968;7.754;2023-02-01T13:37:05;22.40;;;2.75;;
28605;SDS011;46498;49.968;7.754;2023-02-01T13:43:44;20.85;;;2.42;;
28605;SDS011;46498;49.968;7.754;2023-02-01T13:48:51;22.70;;;3.08;;
28605;SDS011;46498;49.968;7.754;2023-02-01T13:53:58;22.02;;;4.40;;
28605;SDS011;46498;49.968;7.754;2023-02-01T13:58:59;11.32;;;1.80;;
28605;SDS011;46498;49.968;7.754;2023-02-01T14:04:50;18.70;;;3.40;;
28605;SDS011;46498;49.968;7.754;2023-02-01T14:09:51;20.98;;;2.67;;
28605;SDS011;46498;49.968;7.754;2023-02-01T14:14:54;18.23;;;2.97;;
28605;SDS011;46498;49.968;7.754;2023-02-01T14:20:38;18.52;;;2.90;;
28605;SDS011;46498;49.968;7.754;2023-02-01T14:25:45;18.05;;;2.92;;
28605;SDS011;46498;49.968;7.754;2023-02-01T14:30:57;17.73;;;2.72;;
28605;SDS011;46498;49.968;7.754;2023-02-01T14:36:07;25.10;;;2.97;;
28605;SDS011;46498;49.968;7.754;2023-02-01T14:41:24;21.30;;;3.60;;
28605;SDS011;46498;49.968;7.754;2023-02-01T14:52:14;18.33;;;2.85;;
28605;SDS011;46498;49.968;7.754;2023-02-01T14:57:18;16.40;;;3.05;;
28605;SDS011;46498;49.968;7.754;2023-02-01T15:02:25;20.05;;;4.20;;
28605;SDS011;46498;49.968;7.754;2023-02-01T15:07:27;16.85;;;2.53;;
28605;SDS011;46498;49.968;7.754;2023-02-01T15:12:29;16.70;;;2.60;;
28605;SDS011;46498;49.968;7.754;2023-02-01T15:17:33;31.10;;;2.55;;
28605;SDS011;46498;49.968;7.754;2023-02-01T15:22:36;13.62;;;2.37;;
28605;SDS011;46498;49.968;7.754;2023-02-01T15:27:37;16.58;;;2.40;;
28605;SDS011;46498;49.968;7.754;2023-02-01T15:32:39;20.75;;;2.42;;
28605;SDS011;46498;49.968;7.754;2023-02-01T15:37:40;15.03;;;2.60;;
28605;SDS011;46498;49.968;7.754;2023-02-01T15:42:51;21.70;;;3.97;;
28605;SDS011;46498;49.968;7.754;2023-02-01T15:47:56;22.65;;;4.15;;
28605;SDS011;46498;49.968;7.754;2023-02-01T15:52:58;17.48;;;2.70;;
28605;SDS011;46498;49.968;7.754;2023-02-01T15:57:59;15.43;;;2.37;;
28605;SDS011;46498;49.968;7.754;2023-02-01T16:03:02;19.73;;;2.85;;
28605;SDS011;46498;49.968;7.754;2023-02-01T16:08:15;13.35;;;3.12;;
28605;SDS011;46498;49.968;7.754;2023-02-01T16:13:23;14.50;;;2.75;;
28605;SDS011;46498;49.968;7.754;2023-02-01T16:18:25;15.98;;;2.42;;
28605;SDS011;46498;49.968;7.754;2023-02-01T16:23:25;23.38;;;2.60;;
28605;SDS011;46498;49.968;7.754;2023-02-01T16:28:27;18.85;;;2.90;;
28605;SDS011;46498;49.968;7.754;2023-02-01T16:33:28;16.70;;;2.62;;
28605;SDS011;46498;49.968;7.754;2023-02-01T16:38:29;21.65;;;4.22;;
28605;SDS011;46498;49.968;7.754;2023-02-01T16:43:31;15.32;;;3.12;;
28605;SDS011;46498;49.968;7.754;2023-02-01T16:48:33;23.73;;;3.20;;
28605;SDS011;46498;49.968;7.754;2023-02-01T16:53:37;13.45;;;2.40;;
28605;SDS011;46498;49.968;7.754;2023-02-01T16:58:54;17.27;;;2.87;;
28605;SDS011;46498;49.968;7.754;2023-02-01T17:03:55;18.35;;;2.78;;
28605;SDS011;46498;49.968;7.754;2023-02-01T17:08:57;11.90;;;2.58;;
28605;SDS011;46498;49.968;7.754;2023-02-01T17:14:20;25.40;;;6.50;;
28605;SDS011;46498;49.968;7.754;2023-02-01T17:19:22;21.65;;;5.15;;
28605;SDS011;46498;49.968;7.754;2023-02-01T17:24:24;19.25;;;3.97;;
28605;SDS011;46498;49.968;7.754;2023-02-01T17:29:39;16.85;;;3.17;;
28605;SDS011;46498;49.968;7.754;2023-02-01T17:34:41;19.90;;;3.23;;
28605;SDS011;46498;49.968;7.754;2023-02-01T17:39:43;23.67;;;3.47;;
28605;SDS011;46498;49.968;7.754;2023-02-01T17:44:59;20.70;;;3.33;;
28605;SDS011;46498;49.968;7.754;2023-02-01T17:50:02;18.70;;;3.85;;
28605;SDS011;46498;49.968;7.754;2023-02-01T17:55:17;15.80;;;3.47;;
28605;SDS011;46498;49.968;7.754;2023-02-01T18:00:20;14.80;;;2.03;;
28605;SDS011;46498;49.968;7.754;2023-02-01T18:05:40;17.67;;;2.60;;
28605;SDS011;46498;49.968;7.754;2023-02-01T18:10:44;16.52;;;2.78;;
28605;SDS011;46498;49.968;7.754;2023-02-01T18:15:44;23.33;;;3.30;;
28605;SDS011;46498;49.968;7.754;2023-02-01T18:20:45;17.48;;;2.58;;
28605;SDS011;46498;49.968;7.754;2023-02-01T18:25:48;11.53;;;2.40;;
28605;SDS011;46498;49.968;7.754;2023-02-01T18:30:51;23.10;;;3.17;;
28605;SDS011;46498;49.968;7.754;2023-02-01T18:35:52;17.52;;;3.22;;
28605;SDS011;46498;49.968;7.754;2023-02-01T18:40:54;19.20;;;3.17;;
28605;SDS011;46498;49.968;7.754;2023-02-01T18:45:58;12.85;;;2.35;;
28605;SDS011;46498;49.968;7.754;2023-02-01T18:50:59;20.37;;;3.30;;
28605;SDS011;46498;49.968;7.754;2023-02-01T18:56:00;16.48;;;3.92;;
28605;SDS011;46498;49.968;7.754;2023-02-01T19:01:06;10.77;;;2.67;;
28605;SDS011;46498;49.968;7.754;2023-02-01T19:06:14;18.77;;;3.45;;
28605;SDS011;46498;49.968;7.754;2023-02-01T19:11:15;20.92;;;4.87;;
28605;SDS011;46498;49.968;7.754;2023-02-01T19:16:16;41.22;;;10.00;;
28605;SDS011;46498;49.968;7.754;2023-02-01T19:21:17;35.60;;;6.93;;
28605;SDS011;46498;49.968;7.754;2023-02-01T19:26:18;42.40;;;9.00;;
28605;SDS011;46498;49.968;7.754;2023-02-01T19:31:19;47.42;;;9.57;;
28605;SDS011;46498;49.968;7.754;2023-02-01T19:36:19;31.48;;;5.87;;
28605;SDS011;46498;49.968;7.754;2023-02-01T19:41:20;39.78;;;6.22;;
28605;SDS011;46498;49.968;7.754;2023-02-01T19:46:21;26.10;;;4.75;;
28605;SDS011;46498;49.968;7.754;2023-02-01T19:51:22;24.73;;;3.62;;
28605;SDS011;46498;49.968;7.754;2023-02-01T19:56:23;33.30;;;5.62;;
28605;SDS011;46498;49.968;7.754;2023-02-01T20:01:24;40.35;;;8.43;;
28605;SDS011;46498;49.968;7.754;2023-02-01T20:06:25;33.67;;;6.55;;
28605;SDS011;46498;49.968;7.754;2023-02-01T20:11:26;31.30;;;4.95;;
28605;SDS011;46498;49.968;7.754;2023-02-01T20:16:27;22.15;;;6.43;;
28605;SDS011;46498;49.968;7.754;2023-02-01T20:21:28;23.62;;;5.03;;
28605;SDS011;46498;49.968;7.754;2023-02-01T20:26:29;22.87;;;4.45;;
28605;SDS011;46498;49.968;7.754;2023-02-01T20:31:30;23.55;;;4.87;;
28605;SDS011;46498;49.968;7.754;2023-02-01T20:36:32;19.67;;;4.00;;
28605;SDS011;46498;49.968;7.754;2023-02-01T20:41:33;21.80;;;4.22;;
28605;SDS011;46498;49.968;7.754;2023-02-01T20:46:34;26.58;;;4.10;;
28605;SDS011;46498;49.968;7.754;2023-02-01T20:51:34;30.70;;;5.68;;
28605;SDS011;46498;49.968;7.754;2023-02-01T20:56:35;26.50;;;4.87;;
28605;SDS011;46498;49.968;7.754;2023-02-01T21:01:38;35.85;;;6.07;;
28605;SDS011;46498;49.968;7.754;2023-02-01T21:06:53;24.90;;;4.62;;
28605;SDS011;46498;49.968;7.754;2023-02-01T21:11:54;21.83;;;4.78;;
28605;SDS011;46498;49.968;7.754;2023-02-01T21:16:55;26.45;;;4.40;;
28605;SDS011;46498;49.968;7.754;2023-02-01T21:21:56;23.05;;;3.60;;
28605;SDS011;46498;49.968;7.754;2023-02-01T21:26:57;32.60;;;5.95;;
28605;SDS011;46498;49.968;7.754;2023-02-01T21:31:58;20.10;;;3.80;;
28605;SDS011;46498;49.968;7.754;2023-02-01T21:36:59;22.40;;;3.10;;
28605;SDS011;46498;49.968;7.754;2023-02-01T21:42:01;21.48;;;4.18;;
28605;SDS011;46498;49.968;7.754;2023-02-01T21:47:14;15.38;;;2.70;;
28605;SDS011;46498;49.968;7.754;2023-02-01T21:52:16;21.92;;;4.30;;
28605;SDS011;46498;49.968;7.754;2023-02-01T21:57:17;21.12;;;3.83;;
28605;SDS011;46498;49.968;7.754;2023-02-01T22:02:18;19.77;;;2.83;;
28605;SDS011;46498;49.968;7.754;2023-02-01T22:07:19;14.63;;;2.25;;
28605;SDS011;46498;49.968;7.754;2023-02-01T22:12:20;20.25;;;3.60;;
28605;SDS011;46498;49.968;7.754;2023-02-01T22:17:22;27.52;;;5.80;;
28605;SDS011;46498;49.968;7.754;2023-02-01T22:22:23;19.00;;;3.75;;
28605;SDS011;46498;49.968;7.754;2023-02-01T22:27:23;18.50;;;4.43;;
28605;SDS011;46498;49.968;7.754;2023-02-01T22:33:33;22.48;;;5.10;;
28605;SDS011;46498;49.968;7.754;2023-02-01T22:38:34;29.63;;;6.53;;
28605;SDS011;46498;49.968;7.754;2023-02-01T22:43:35;28.42;;;5.53;;
28605;SDS011;46498;49.968;7.754;2023-02-01T22:48:37;28.90;;;5.90;;
28605;SDS011;46498;49.968;7.754;2023-02-01T22:53:39;26.50;;;5.07;;
28605;SDS011;46498;49.968;7.754;2023-02-01T22:58:40;22.58;;;4.87;;
28605;SDS011;46498;49.968;7.754;2023-02-01T23:03:41;30.00;;;7.60;;
28605;SDS011;46498;49.968;7.754;2023-02-01T23:08:42;38.45;;;9.30;;
28605;SDS011;46498;49.968;7.754;2023-02-01T23:13:43;24.90;;;6.05;;
28605;SDS011;46498;49.968;7.754;2023-02-01T23:18:43;23.92;;;5.80;;
28605;SDS011;46498;49.968;7.754;2023-02-01T23:23:51;23.12;;;5.68;;
28605;SDS011;46498;49.968;7.754;2023-02-01T23:28:54;21.10;;;4.50;;
28605;SDS011;46498;49.968;7.754;2023-02-01T23:33:56;31.87;;;5.12;;
28605;SDS011;46498;49.968;7.754;2023-02-01T23:38:59;26.73;;;5.07;;
28605;SDS011;46498;49.968;7.754;2023-02-01T23:44:01;26.05;;;5.50;;
28605;SDS011;46498;49.968;7.754;2023-02-01T23:49:02;18.80;;;3.95;;
28605;SDS011;46498;49.968;7.754;2023-02-01T23:54:07;29.33;;;4.22;;
28605;SDS011;46498;49.968;7.754;2023-02-01T23:59:14;14.85;;;4.87;;
